createdAt,value
2024-03-07T00:01:39.116Z,14.13
2024-03-07T00:04:42.170Z,15.82
2024-03-07T00:07:46.116Z,13.82
2024-03-07T00:10:48.892Z,15.55
2024-03-07T00:13:51.484Z,14.68
2024-03-07T00:16:55.471Z,13.98
2024-03-07T00:19:57.666Z,15.02
2024-03-07T00:22:59.657Z,14.35
2024-03-07T00:26:02.033Z,13.23
2024-03-07T00:29:04.529Z,13.40
2024-03-07T00:32:07.432Z,13.68
2024-03-07T00:35:12.490Z,14.30
2024-03-07T00:41:18.460Z,11.10
2024-03-07T00:44:21.576Z,12.60
2024-03-07T00:47:25.378Z,12.48
2024-03-07T00:50:29.165Z,12.32
2024-03-07T00:53:32.167Z,11.25
2024-03-07T00:56:39.567Z,9.55
2024-03-07T00:59:42.843Z,10.88
2024-03-07T01:02:45.699Z,10.85
2024-03-07T01:05:47.942Z,10.43
2024-03-07T01:08:50.233Z,10.05
2024-03-07T01:11:52.417Z,10.13
2024-03-07T01:15:01.707Z,10.68
2024-03-07T01:18:05.577Z,10.48
2024-03-07T01:21:07.741Z,10.05
2024-03-07T01:24:10.437Z,11.30
2024-03-07T01:27:12.946Z,11.38
2024-03-07T01:30:15.229Z,10.52
2024-03-07T01:33:17.690Z,10.93
2024-03-07T01:36:20.431Z,10.73
2024-03-07T01:39:24.706Z,11.65
2024-03-07T01:42:27.942Z,11.07
2024-03-07T01:45:30.362Z,10.50
2024-03-07T01:48:33.104Z,12.32
2024-03-07T01:51:37.532Z,11.07
2024-03-07T01:54:40.122Z,11.57
2024-03-07T01:57:42.306Z,11.13
2024-03-07T02:00:45.231Z,11.18
2024-03-07T02:03:48.436Z,12.35
2024-03-07T02:06:52.116Z,11.23
2024-03-07T02:10:05.305Z,11.88
2024-03-07T02:13:07.484Z,13.32
2024-03-07T02:16:09.573Z,11.32
2024-03-07T02:19:17.359Z,13.05
2024-03-07T02:22:20.432Z,11.95
2024-03-07T02:25:22.911Z,13.05
2024-03-07T02:28:25.275Z,11.20
2024-03-07T02:31:36.383Z,12.27
2024-03-07T02:34:38.494Z,13.73
2024-03-07T02:37:40.691Z,13.77
2024-03-07T02:40:42.754Z,10.82
2024-03-07T02:43:45.352Z,13.23
2024-03-07T02:46:48.248Z,12.50
2024-03-07T02:49:50.508Z,10.85
2024-03-07T02:52:54.351Z,9.23
2024-03-07T02:55:56.383Z,9.27
2024-03-07T02:59:00.174Z,10.73
2024-03-07T03:02:03.719Z,8.80
2024-03-07T03:05:09.205Z,8.23
2024-03-07T03:08:11.639Z,6.57
2024-03-07T03:11:15.711Z,5.30
2024-03-07T03:14:17.763Z,5.05
2024-03-07T03:17:20.539Z,4.15
2024-03-07T03:20:35.691Z,4.10
2024-03-07T03:23:41.945Z,4.43
2024-03-07T03:26:44.083Z,2.78
2024-03-07T03:29:46.275Z,2.42
2024-03-07T03:32:54.095Z,3.58
2024-03-07T03:35:56.669Z,3.15
2024-03-07T03:38:59.093Z,4.20
2024-03-07T03:42:01.760Z,3.83
2024-03-07T03:45:07.892Z,3.55
2024-03-07T03:48:10.210Z,3.00
2024-03-07T03:51:15.285Z,3.72
2024-03-07T03:54:17.572Z,3.28
2024-03-07T03:57:21.139Z,3.15
2024-03-07T04:00:24.862Z,3.72
2024-03-07T04:03:27.864Z,4.57
2024-03-07T04:06:31.114Z,4.50
2024-03-07T04:09:33.146Z,4.60
2024-03-07T04:12:39.626Z,5.13
2024-03-07T04:15:44.999Z,5.40
2024-03-07T04:18:48.322Z,4.70
2024-03-07T04:21:50.871Z,5.05
2024-03-07T04:24:57.337Z,5.43
2024-03-07T04:27:59.836Z,4.57
2024-03-07T04:31:02.332Z,5.35
2024-03-07T04:34:06.313Z,4.95
2024-03-07T04:37:08.578Z,5.25
2024-03-07T04:40:18.282Z,5.10
2024-03-07T04:43:22.900Z,4.72
2024-03-07T04:46:25.996Z,4.60
2024-03-07T04:49:30.068Z,4.03
2024-03-07T04:52:34.590Z,3.63
2024-03-07T04:55:37.015Z,4.10
2024-03-07T04:58:40.169Z,3.38
2024-03-07T05:01:42.574Z,3.47
2024-03-07T05:04:45.714Z,4.25
2024-03-07T05:07:48.326Z,3.22
2024-03-07T05:10:51.139Z,3.13
2024-03-07T05:13:53.168Z,4.85
2024-03-07T05:17:07.368Z,3.05
2024-03-07T05:20:12.208Z,2.58
2024-03-07T05:23:18.014Z,3.08
2024-03-07T05:26:21.075Z,3.45
2024-03-07T05:29:23.761Z,2.80
2024-03-07T05:32:27.517Z,7.80
2024-03-07T05:35:32.914Z,5.53
2024-03-07T05:38:36.932Z,5.63
2024-03-07T05:41:39.597Z,2.95
2024-03-07T05:44:48.060Z,5.15
2024-03-07T05:47:50.665Z,2.33
2024-03-07T05:50:55.047Z,4.78
2024-03-07T05:53:57.453Z,6.22
2024-03-07T05:57:03.696Z,2.90
2024-03-07T06:00:10.956Z,2.92
2024-03-07T06:03:18.876Z,2.33
2024-03-07T06:06:22.544Z,3.92
2024-03-07T06:09:25.207Z,4.72
2024-03-07T06:12:28.203Z,4.18
2024-03-07T06:15:31.210Z,2.83
2024-03-07T06:18:33.308Z,5.15
2024-03-07T06:21:40.743Z,3.15
2024-03-07T06:24:44.427Z,3.58
2024-03-07T06:27:51.121Z,2.83
2024-03-07T06:30:57.072Z,3.03
2024-03-07T06:33:59.426Z,3.05
2024-03-07T06:37:01.706Z,3.65
2024-03-07T06:40:12.969Z,8.88
2024-03-07T06:43:15.359Z,3.70
2024-03-07T06:46:17.737Z,4.40
2024-03-07T06:49:19.852Z,3.80
2024-03-07T06:52:22.616Z,2.42
2024-03-07T06:55:25.544Z,2.88
2024-03-07T06:58:31.229Z,4.05
2024-03-07T07:01:35.733Z,2.17
2024-03-07T07:04:43.970Z,2.13
2024-03-07T07:07:47.198Z,2.53
2024-03-07T07:10:49.623Z,3.88
2024-03-07T07:13:52.974Z,17.70
2024-03-07T07:16:55.680Z,8.70
2024-03-07T07:19:59.345Z,5.07
2024-03-07T07:23:05.248Z,2.85
2024-03-07T07:26:07.429Z,3.45
2024-03-07T07:29:09.596Z,2.83
2024-03-07T07:32:13.842Z,3.17
2024-03-07T07:35:16.776Z,1.75
2024-03-07T07:38:21.335Z,2.70
2024-03-07T07:41:23.699Z,2.92
2024-03-07T07:44:28.077Z,3.10
2024-03-07T07:47:30.704Z,2.40
2024-03-07T07:50:44.022Z,3.95
2024-03-07T07:53:47.395Z,2.53
2024-03-07T07:56:49.776Z,2.90
2024-03-07T07:59:51.946Z,2.35
2024-03-07T08:02:56.322Z,1.85
2024-03-07T08:06:00.004Z,2.40
2024-03-07T08:09:04.335Z,3.00
2024-03-07T08:12:15.590Z,2.97
2024-03-07T08:18:21.509Z,1.75
2024-03-07T08:21:25.038Z,2.42
2024-03-07T08:24:27.255Z,3.00
2024-03-07T08:27:31.217Z,2.60
2024-03-07T08:30:36.528Z,2.13
2024-03-07T08:33:40.012Z,2.58
2024-03-07T08:36:42.283Z,2.20
2024-03-07T08:39:44.450Z,4.10
2024-03-07T08:42:51.408Z,1.67
2024-03-07T08:45:54.139Z,2.30
2024-03-07T08:48:56.968Z,4.00
2024-03-07T08:52:01.807Z,2.13
2024-03-07T08:58:10.193Z,2.25
2024-03-07T09:01:12.510Z,3.03
2024-03-07T09:04:15.860Z,2.22
2024-03-07T09:07:18.988Z,2.60
2024-03-07T09:10:31.873Z,2.42
2024-03-07T09:13:34.311Z,1.92
2024-03-07T09:16:38.575Z,2.05
2024-03-07T09:19:41.033Z,3.42
2024-03-07T09:22:46.558Z,2.00
2024-03-07T09:25:50.348Z,2.30
2024-03-07T09:28:52.418Z,2.30
2024-03-07T09:31:56.312Z,1.70
2024-03-07T09:34:58.604Z,1.77
2024-03-07T09:38:03.341Z,1.60
2024-03-07T09:41:06.752Z,1.70
2024-03-07T09:44:23.904Z,1.95
2024-03-07T09:47:27.844Z,1.88
2024-03-07T09:50:31.549Z,1.48
2024-03-07T09:53:33.952Z,2.08
2024-03-07T09:56:39.448Z,1.85
2024-03-07T09:59:44.968Z,2.45
2024-03-07T10:02:47.916Z,2.78
2024-03-07T10:05:50.237Z,1.63
2024-03-07T10:08:52.484Z,2.40
2024-03-07T10:12:01.738Z,2.50
2024-03-07T10:15:04.771Z,2.28
2024-03-07T10:18:11.411Z,2.42
2024-03-07T10:21:27.978Z,3.25
2024-03-07T10:24:30.444Z,1.95
2024-03-07T10:27:32.492Z,2.75
2024-03-07T10:30:42.444Z,2.80
2024-03-07T10:33:48.482Z,2.28
2024-03-07T10:36:50.518Z,2.42
2024-03-07T10:39:53.305Z,2.30
2024-03-07T10:43:00.071Z,2.67
2024-03-07T10:46:08.118Z,4.65
2024-03-07T10:49:17.562Z,3.47
2024-03-07T10:52:37.680Z,2.80
2024-03-07T10:56:01.166Z,2.72
2024-03-07T10:59:19.835Z,2.83
2024-03-07T11:02:31.451Z,3.10
2024-03-07T11:08:36.519Z,3.45
2024-03-07T11:11:45.102Z,3.33
2024-03-07T11:14:50.915Z,2.92
2024-03-07T11:17:56.124Z,2.88
2024-03-07T11:20:59.773Z,3.20
2024-03-07T11:24:01.914Z,2.70
2024-03-07T11:27:07.076Z,2.42
2024-03-07T11:30:14.706Z,2.28
2024-03-07T11:33:18.636Z,2.25
2024-03-07T11:36:44.617Z,2.67
2024-03-07T11:39:48.541Z,2.90
2024-03-07T11:42:50.839Z,2.85
2024-03-07T11:45:54.868Z,2.63
2024-03-07T11:49:00.707Z,2.58
2024-03-07T11:52:12.991Z,3.97
2024-03-07T11:55:16.372Z,3.67
2024-03-07T11:58:22.522Z,3.20
2024-03-07T12:01:28.665Z,3.38
2024-03-07T12:04:31.880Z,3.40
2024-03-07T12:07:35.446Z,3.15
2024-03-07T12:10:49.240Z,3.10
2024-03-07T12:13:52.965Z,3.75
2024-03-07T12:16:55.216Z,3.90
2024-03-07T12:20:02.790Z,3.30
2024-03-07T12:23:09.071Z,3.78
2024-03-07T12:26:17.970Z,3.38
2024-03-07T12:29:21.351Z,2.70
2024-03-07T12:32:23.507Z,2.92
2024-03-07T12:35:25.865Z,3.03
2024-03-07T12:38:36.728Z,3.10
2024-03-07T12:41:39.275Z,3.45
2024-03-07T12:44:52.261Z,2.88
2024-03-07T12:47:55.833Z,2.97
2024-03-07T12:50:58.412Z,2.38
2024-03-07T12:54:00.528Z,2.72
2024-03-07T12:57:06.777Z,2.58
2024-03-07T13:00:20.019Z,2.15
2024-03-07T13:03:32.386Z,2.15
2024-03-07T13:06:37.881Z,2.00
2024-03-07T13:09:45.525Z,2.13
2024-03-07T13:12:50.432Z,2.38
2024-03-07T13:15:56.745Z,2.22
2024-03-07T13:19:00.578Z,2.47
2024-03-07T13:22:03.891Z,2.33
2024-03-07T13:25:14.907Z,2.30
2024-03-07T13:28:25.661Z,1.88
2024-03-07T13:31:31.032Z,2.53
2024-03-07T13:34:34.699Z,2.28
2024-03-07T13:37:37.890Z,2.60
2024-03-07T13:40:43.191Z,4.90
2024-03-07T13:43:45.257Z,2.88
2024-03-07T13:46:48.269Z,2.83
2024-03-07T13:49:51.023Z,3.15
2024-03-07T13:53:07.957Z,2.53
2024-03-07T13:56:16.060Z,2.22
2024-03-07T13:59:47.589Z,3.03
2024-03-07T14:03:14.719Z,2.60
2024-03-07T14:06:49.460Z,2.38
2024-03-07T14:09:59.505Z,1.98
2024-03-07T14:13:32.230Z,2.42
2024-03-07T14:16:47.277Z,3.25
2024-03-07T14:20:30.015Z,10.20
2024-03-07T14:24:10.287Z,2.67
2024-03-07T14:27:32.118Z,2.33
2024-03-07T14:30:45.944Z,2.88
2024-03-07T14:34:25.518Z,2.38
2024-03-07T14:37:36.570Z,2.67
2024-03-07T14:40:38.524Z,3.28
2024-03-07T14:43:43.114Z,3.25
2024-03-07T14:46:58.005Z,2.33
2024-03-07T14:50:00.999Z,2.00
2024-03-07T14:53:04.700Z,2.95
2024-03-07T14:56:07.014Z,2.42
2024-03-07T14:59:09.118Z,3.33
2024-03-07T15:02:12.358Z,3.50
2024-03-07T15:05:19.189Z,4.25
2024-03-07T15:08:25.927Z,3.45
2024-03-07T15:11:39.273Z,3.42
2024-03-07T15:14:43.300Z,7.18
2024-03-07T15:17:47.613Z,3.75
2024-03-07T15:20:49.878Z,5.05
2024-03-07T15:23:54.764Z,8.25
2024-03-07T15:26:58.884Z,8.65
2024-03-07T15:30:03.580Z,7.28
2024-03-07T15:33:06.935Z,7.93
2024-03-07T15:36:10.435Z,8.55
2024-03-07T15:39:28.266Z,6.95
2024-03-07T15:42:32.922Z,6.75
2024-03-07T15:45:35.220Z,6.18
2024-03-07T15:48:38.202Z,5.03
2024-03-07T15:51:40.349Z,5.25
2024-03-07T15:54:43.076Z,5.63
2024-03-07T15:57:55.922Z,5.95
2024-03-07T16:00:58.826Z,4.85
2024-03-07T16:04:01.734Z,6.72
2024-03-07T16:07:05.051Z,7.70
2024-03-07T16:10:13.857Z,13.65
2024-03-07T16:13:17.188Z,6.65
2024-03-07T16:16:21.146Z,9.00
2024-03-07T16:19:25.329Z,7.68
2024-03-07T16:22:28.964Z,8.77
2024-03-07T16:25:36.016Z,7.95
2024-03-07T16:28:38.095Z,8.35
2024-03-07T16:31:40.696Z,7.20
2024-03-07T16:34:44.178Z,8.27
2024-03-07T16:37:48.701Z,8.70
2024-03-07T16:40:51.238Z,8.35
2024-03-07T16:43:53.219Z,10.75
2024-03-07T16:46:55.495Z,9.48
2024-03-07T16:49:57.889Z,8.85
2024-03-07T16:53:08.155Z,10.25
2024-03-07T16:56:11.074Z,10.27
2024-03-07T16:59:13.216Z,10.38
2024-03-07T17:02:15.264Z,9.65
2024-03-07T17:05:17.734Z,11.38
2024-03-07T17:08:23.062Z,9.07
2024-03-07T17:11:25.548Z,10.98
2024-03-07T17:14:28.198Z,9.60
2024-03-07T17:17:30.619Z,11.10
2024-03-07T17:20:34.827Z,10.30
2024-03-07T17:23:36.941Z,10.63
2024-03-07T17:26:47.006Z,12.13
2024-03-07T17:29:49.604Z,10.52
2024-03-07T17:32:52.837Z,10.98
2024-03-07T17:35:58.354Z,9.98
2024-03-07T17:39:14.587Z,9.75
2024-03-07T17:42:18.681Z,10.70
2024-03-07T17:45:23.627Z,11.27
2024-03-07T17:48:26.944Z,10.88
2024-03-07T17:51:30.042Z,11.68
2024-03-07T17:54:32.427Z,11.25
2024-03-07T17:57:34.554Z,11.40
2024-03-07T18:00:37.606Z,11.48
2024-03-07T18:03:42.864Z,11.50
2024-03-07T18:06:47.992Z,11.60
2024-03-07T18:09:50.213Z,11.55
2024-03-07T18:12:54.555Z,11.93
2024-03-07T18:15:56.579Z,11.32
2024-03-07T18:18:59.273Z,13.98
2024-03-07T18:22:01.859Z,11.88
2024-03-07T18:25:04.681Z,11.05
2024-03-07T18:28:06.992Z,9.73
2024-03-07T18:31:16.234Z,12.18
2024-03-07T18:34:18.856Z,12.05
2024-03-07T18:37:23.444Z,12.13
2024-03-07T18:40:25.931Z,10.63
2024-03-07T18:43:29.282Z,10.23
2024-03-07T18:46:33.237Z,8.38
2024-03-07T18:49:36.787Z,9.52
2024-03-07T18:52:41.849Z,8.85
2024-03-07T18:55:51.426Z,9.05
2024-03-07T18:58:53.970Z,11.63
2024-03-07T19:01:56.214Z,9.32
2024-03-07T19:04:59.611Z,8.13
2024-03-07T19:08:17.016Z,8.38
2024-03-07T19:11:19.682Z,7.70
2024-03-07T19:14:24.172Z,7.13
2024-03-07T19:17:29.579Z,7.03
2024-03-07T19:20:33.278Z,7.90
2024-03-07T19:23:37.329Z,9.65
2024-03-07T19:26:53.107Z,8.25
2024-03-07T19:29:55.459Z,9.77
2024-03-07T19:32:59.395Z,8.75
2024-03-07T19:36:08.356Z,8.35
2024-03-07T19:39:13.957Z,8.50
2024-03-07T19:42:16.272Z,8.43
2024-03-07T19:45:21.227Z,7.45
2024-03-07T19:48:26.580Z,7.82
2024-03-07T19:51:29.291Z,6.13
2024-03-07T19:54:31.958Z,7.40
2024-03-07T19:57:35.727Z,6.88
2024-03-07T20:00:37.910Z,7.97
2024-03-07T20:06:55.600Z,8.00
2024-03-07T20:09:57.770Z,7.13
2024-03-07T20:13:00.510Z,8.27
2024-03-07T20:16:02.668Z,7.38
2024-03-07T20:19:05.193Z,8.05
2024-03-07T20:22:08.438Z,9.10
2024-03-07T20:25:15.404Z,18.45
2024-03-07T20:28:17.466Z,15.30
2024-03-07T20:31:20.721Z,8.48
2024-03-07T20:34:22.962Z,6.10
2024-03-07T20:37:25.163Z,6.35
2024-03-07T20:40:27.235Z,4.93
2024-03-07T20:43:29.237Z,4.53
2024-03-07T20:46:31.465Z,5.80
2024-03-07T20:49:33.938Z,3.70
2024-03-07T20:52:38.946Z,4.35
2024-03-07T20:55:41.995Z,4.40
2024-03-07T20:58:45.513Z,6.25
2024-03-07T21:01:48.324Z,4.57
2024-03-07T21:04:50.361Z,5.65
2024-03-07T21:07:54.391Z,4.93
2024-03-07T21:10:57.364Z,5.18
2024-03-07T21:13:59.774Z,6.03
2024-03-07T21:17:02.448Z,5.85
2024-03-07T21:20:15.047Z,4.57
2024-03-07T21:23:20.414Z,4.13
2024-03-07T21:29:24.991Z,4.00
2024-03-07T21:32:39.961Z,4.78
2024-03-07T21:35:44.439Z,3.97
2024-03-07T21:38:51.945Z,3.13
2024-03-07T21:41:54.077Z,2.95
2024-03-07T21:44:57.312Z,3.38
2024-03-07T21:47:59.476Z,3.45
2024-03-07T21:51:02.720Z,3.67
2024-03-07T21:54:05.401Z,2.70
2024-03-07T21:57:08.228Z,2.92
2024-03-07T22:00:20.445Z,3.92
2024-03-07T22:03:23.452Z,3.13
2024-03-07T22:06:25.520Z,3.47
2024-03-07T22:09:28.272Z,3.60
2024-03-07T22:12:31.774Z,3.58
2024-03-07T22:15:36.457Z,3.40
2024-03-07T22:18:39.470Z,4.55
2024-03-07T22:21:43.964Z,3.65
2024-03-07T22:24:46.792Z,3.42
2024-03-07T22:27:52.433Z,4.80
2024-03-07T22:30:54.720Z,3.97
2024-03-07T22:33:57.783Z,4.03
2024-03-07T22:37:00.711Z,3.72
2024-03-07T22:40:05.428Z,4.22
2024-03-07T22:43:07.631Z,3.65
2024-03-07T22:46:12.596Z,5.13
2024-03-07T22:49:15.175Z,3.70
2024-03-07T22:52:17.754Z,3.67
2024-03-07T22:55:19.804Z,4.03
2024-03-07T22:58:21.758Z,4.85
2024-03-07T23:01:32.163Z,4.22
2024-03-07T23:04:34.852Z,4.25
2024-03-07T23:07:36.922Z,5.40
2024-03-07T23:10:39.467Z,6.57
2024-03-07T23:13:41.670Z,4.95
2024-03-07T23:16:46.316Z,4.65
2024-03-07T23:19:49.064Z,3.67
2024-03-07T23:22:52.869Z,3.33
2024-03-07T23:25:55.543Z,4.00
2024-03-07T23:28:57.709Z,3.97
2024-03-07T23:32:00.371Z,3.53
2024-03-07T23:35:05.138Z,3.35
2024-03-07T23:38:08.101Z,3.72
2024-03-07T23:41:12.197Z,3.28
2024-03-07T23:44:16.934Z,3.75
2024-03-07T23:47:23.301Z,2.42
2024-03-07T23:50:28.107Z,4.35
2024-03-07T23:53:30.249Z,3.05
2024-03-07T23:56:32.418Z,2.55
2024-03-07T23:59:36.054Z,2.30
